sensor_id;sensor_type;location;lat;lon;timestamp;P1;durP1;ratioP1;P2;durP2;ratioP2
44248;SDS011;29923;48.718;9.272;2022-12-18T00:01:22;226.27;;;46.53;;
44248;SDS011;29923;48.718;9.272;2022-12-18T00:03:48;328.45;;;48.80;;
44248;SDS011;29923;48.718;9.272;2022-12-18T00:06:15;177.02;;;45.45;;
44248;SDS011;29923;48.718;9.272;2022-12-18T00:08:41;174.57;;;43.95;;
44248;SDS011;29923;48.718;9.272;2022-12-18T00:11:08;266.50;;;42.10;;
44248;SDS011;29923;48.718;9.272;2022-12-18T00:13:36;251.35;;;47.33;;
44248;SDS011;29923;48.718;9.272;2022-12-18T00:16:02;201.07;;;38.38;;
44248;SDS011;29923;48.718;9.272;2022-12-18T00:18:29;278.67;;;54.30;;
44248;SDS011;29923;48.718;9.272;2022-12-18T00:20:57;185.25;;;42.72;;
44248;SDS011;29923;48.718;9.272;2022-12-18T00:23:23;165.70;;;42.00;;
44248;SDS011;29923;48.718;9.272;2022-12-18T00:25:49;165.93;;;45.30;;
44248;SDS011;29923;48.718;9.272;2022-12-18T00:28:14;253.80;;;49.22;;
44248;SDS011;29923;48.718;9.272;2022-12-18T00:30:39;164.15;;;44.15;;
44248;SDS011;29923;48.718;9.272;2022-12-18T00:33:04;279.95;;;52.05;;
44248;SDS011;29923;48.718;9.272;2022-12-18T00:35:31;199.13;;;47.58;;
44248;SDS011;29923;48.718;9.272;2022-12-18T00:37:56;250.50;;;52.58;;
44248;SDS011;29923;48.718;9.272;2022-12-18T00:40:21;240.38;;;53.17;;
44248;SDS011;29923;48.718;9.272;2022-12-18T00:42:47;153.00;;;51.28;;
44248;SDS011;29923;48.718;9.272;2022-12-18T00:45:28;237.52;;;52.53;;
44248;SDS011;29923;48.718;9.272;2022-12-18T00:47:55;150.98;;;48.63;;
44248;SDS011;29923;48.718;9.272;2022-12-18T00:50:21;161.32;;;47.58;;
44248;SDS011;29923;48.718;9.272;2022-12-18T00:52:48;176.63;;;49.92;;
44248;SDS011;29923;48.718;9.272;2022-12-18T00:55:13;228.05;;;49.15;;
44248;SDS011;29923;48.718;9.272;2022-12-18T00:57:39;341.30;;;50.78;;
44248;SDS011;29923;48.718;9.272;2022-12-18T01:00:06;226.35;;;53.75;;
44248;SDS011;29923;48.718;9.272;2022-12-18T01:02:33;143.40;;;45.22;;
44248;SDS011;29923;48.718;9.272;2022-12-18T01:04:58;320.85;;;52.17;;
44248;SDS011;29923;48.718;9.272;2022-12-18T01:07:23;137.23;;;46.08;;
44248;SDS011;29923;48.718;9.272;2022-12-18T01:09:49;148.02;;;48.42;;
44248;SDS011;29923;48.718;9.272;2022-12-18T01:12:14;144.10;;;47.08;;
44248;SDS011;29923;48.718;9.272;2022-12-18T01:14:39;155.93;;;51.42;;
44248;SDS011;29923;48.718;9.272;2022-12-18T01:17:05;136.73;;;45.30;;
44248;SDS011;29923;48.718;9.272;2022-12-18T01:19:30;112.55;;;41.72;;
44248;SDS011;29923;48.718;9.272;2022-12-18T01:21:55;151.10;;;43.42;;
44248;SDS011;29923;48.718;9.272;2022-12-18T01:24:21;167.77;;;50.00;;
44248;SDS011;29923;48.718;9.272;2022-12-18T01:26:46;143.05;;;47.33;;
44248;SDS011;29923;48.718;9.272;2022-12-18T01:29:12;135.80;;;47.63;;
44248;SDS011;29923;48.718;9.272;2022-12-18T01:31:37;132.13;;;44.03;;
44248;SDS011;29923;48.718;9.272;2022-12-18T01:34:03;228.23;;;42.53;;
44248;SDS011;29923;48.718;9.272;2022-12-18T01:36:30;163.43;;;43.30;;
44248;SDS011;29923;48.718;9.272;2022-12-18T01:38:58;161.35;;;45.22;;
44248;SDS011;29923;48.718;9.272;2022-12-18T01:41:26;153.77;;;43.55;;
44248;SDS011;29923;48.718;9.272;2022-12-18T01:47:20;115.97;;;40.85;;
44248;SDS011;29923;48.718;9.272;2022-12-18T01:49:48;113.43;;;40.70;;
44248;SDS011;29923;48.718;9.272;2022-12-18T01:52:14;126.78;;;43.65;;
44248;SDS011;29923;48.718;9.272;2022-12-18T01:54:40;114.90;;;42.60;;
44248;SDS011;29923;48.718;9.272;2022-12-18T01:57:05;116.72;;;42.25;;
44248;SDS011;29923;48.718;9.272;2022-12-18T01:59:31;109.57;;;41.65;;
44248;SDS011;29923;48.718;9.272;2022-12-18T02:01:57;115.68;;;44.00;;
44248;SDS011;29923;48.718;9.272;2022-12-18T02:04:26;115.30;;;42.80;;
44248;SDS011;29923;48.718;9.272;2022-12-18T02:06:59;113.93;;;43.15;;
44248;SDS011;29923;48.718;9.272;2022-12-18T02:09:32;116.00;;;41.60;;
44248;SDS011;29923;48.718;9.272;2022-12-18T02:12:11;111.85;;;41.80;;
44248;SDS011;29923;48.718;9.272;2022-12-18T02:14:45;128.38;;;44.70;;
44248;SDS011;29923;48.718;9.272;2022-12-18T02:17:40;134.68;;;44.40;;
44248;SDS011;29923;48.718;9.272;2022-12-18T02:28:45;113.75;;;42.95;;
44248;SDS011;29923;48.718;9.272;2022-12-18T02:31:35;114.22;;;43.38;;
44248;SDS011;29923;48.718;9.272;2022-12-18T02:34:04;129.15;;;46.78;;
44248;SDS011;29923;48.718;9.272;2022-12-18T02:36:30;135.27;;;48.70;;
44248;SDS011;29923;48.718;9.272;2022-12-18T02:38:57;109.65;;;41.90;;
44248;SDS011;29923;48.718;9.272;2022-12-18T02:41:24;109.50;;;42.70;;
44248;SDS011;29923;48.718;9.272;2022-12-18T02:43:53;113.18;;;41.88;;
44248;SDS011;29923;48.718;9.272;2022-12-18T02:46:28;114.85;;;42.97;;
44248;SDS011;29923;48.718;9.272;2022-12-18T02:48:59;123.32;;;43.28;;
44248;SDS011;29923;48.718;9.272;2022-12-18T02:51:44;117.10;;;43.53;;
44248;SDS011;29923;48.718;9.272;2022-12-18T02:57:29;100.32;;;39.70;;
44248;SDS011;29923;48.718;9.272;2022-12-18T03:00:21;102.07;;;40.08;;
44248;SDS011;29923;48.718;9.272;2022-12-18T03:02:57;113.70;;;42.42;;
44248;SDS011;29923;48.718;9.272;2022-12-18T03:08:22;98.72;;;37.08;;
44248;SDS011;29923;48.718;9.272;2022-12-18T03:10:52;106.10;;;39.00;;
44248;SDS011;29923;48.718;9.272;2022-12-18T03:14:06;99.97;;;41.38;;
44248;SDS011;29923;48.718;9.272;2022-12-18T03:16:15;112.35;;;40.65;;
44248;SDS011;29923;48.718;9.272;2022-12-18T03:18:49;111.68;;;42.28;;
44248;SDS011;29923;48.718;9.272;2022-12-18T03:21:23;106.78;;;39.85;;
44248;SDS011;29923;48.718;9.272;2022-12-18T03:23:53;106.25;;;40.33;;
44248;SDS011;29923;48.718;9.272;2022-12-18T03:26:20;95.18;;;38.17;;
44248;SDS011;29923;48.718;9.272;2022-12-18T03:28:51;104.85;;;38.22;;
44248;SDS011;29923;48.718;9.272;2022-12-18T03:31:19;95.60;;;38.92;;
44248;SDS011;29923;48.718;9.272;2022-12-18T03:33:50;96.65;;;36.10;;
44248;SDS011;29923;48.718;9.272;2022-12-18T03:36:20;101.07;;;37.95;;
44248;SDS011;29923;48.718;9.272;2022-12-18T03:38:45;88.22;;;35.15;;
44248;SDS011;29923;48.718;9.272;2022-12-18T03:41:19;95.50;;;36.63;;
44248;SDS011;29923;48.718;9.272;2022-12-18T03:43:52;100.53;;;38.25;;
44248;SDS011;29923;48.718;9.272;2022-12-18T03:46:45;88.72;;;35.40;;
44248;SDS011;29923;48.718;9.272;2022-12-18T03:49:19;100.28;;;35.72;;
44248;SDS011;29923;48.718;9.272;2022-12-18T03:52:00;100.05;;;37.40;;
44248;SDS011;29923;48.718;9.272;2022-12-18T03:54:28;95.68;;;37.83;;
44248;SDS011;29923;48.718;9.272;2022-12-18T03:56:57;93.68;;;36.17;;
44248;SDS011;29923;48.718;9.272;2022-12-18T03:59:24;97.28;;;37.28;;
44248;SDS011;29923;48.718;9.272;2022-12-18T04:01:51;86.18;;;35.28;;
44248;SDS011;29923;48.718;9.272;2022-12-18T04:04:18;86.57;;;34.80;;
44248;SDS011;29923;48.718;9.272;2022-12-18T04:06:43;95.05;;;38.10;;
44248;SDS011;29923;48.718;9.272;2022-12-18T04:09:10;103.60;;;38.60;;
44248;SDS011;29923;48.718;9.272;2022-12-18T04:11:36;91.05;;;35.38;;
44248;SDS011;29923;48.718;9.272;2022-12-18T04:14:01;103.22;;;38.92;;
44248;SDS011;29923;48.718;9.272;2022-12-18T04:16:26;108.82;;;39.55;;
44248;SDS011;29923;48.718;9.272;2022-12-18T04:18:52;97.13;;;37.85;;
44248;SDS011;29923;48.718;9.272;2022-12-18T04:21:18;98.80;;;38.72;;
44248;SDS011;29923;48.718;9.272;2022-12-18T04:23:44;99.03;;;37.13;;
44248;SDS011;29923;48.718;9.272;2022-12-18T04:26:09;100.40;;;36.17;;
44248;SDS011;29923;48.718;9.272;2022-12-18T04:28:34;86.00;;;32.80;;
44248;SDS011;29923;48.718;9.272;2022-12-18T04:31:00;82.18;;;33.15;;
44248;SDS011;29923;48.718;9.272;2022-12-18T04:33:25;78.65;;;31.42;;
44248;SDS011;29923;48.718;9.272;2022-12-18T04:35:50;73.13;;;29.50;;
44248;SDS011;29923;48.718;9.272;2022-12-18T04:38:16;76.45;;;28.95;;
44248;SDS011;29923;48.718;9.272;2022-12-18T04:40:41;76.50;;;28.73;;
44248;SDS011;29923;48.718;9.272;2022-12-18T04:43:07;72.60;;;29.10;;
44248;SDS011;29923;48.718;9.272;2022-12-18T04:45:32;63.63;;;26.83;;
44248;SDS011;29923;48.718;9.272;2022-12-18T04:47:58;67.78;;;27.60;;
44248;SDS011;29923;48.718;9.272;2022-12-18T04:50:24;68.50;;;27.15;;
44248;SDS011;29923;48.718;9.272;2022-12-18T04:52:49;67.82;;;28.25;;
44248;SDS011;29923;48.718;9.272;2022-12-18T04:55:15;72.75;;;27.75;;
44248;SDS011;29923;48.718;9.272;2022-12-18T04:57:40;67.65;;;27.42;;
44248;SDS011;29923;48.718;9.272;2022-12-18T05:00:06;71.38;;;29.88;;
44248;SDS011;29923;48.718;9.272;2022-12-18T05:02:31;69.35;;;27.55;;
44248;SDS011;29923;48.718;9.272;2022-12-18T05:04:57;75.93;;;28.88;;
44248;SDS011;29923;48.718;9.272;2022-12-18T05:07:22;68.68;;;29.02;;
44248;SDS011;29923;48.718;9.272;2022-12-18T05:09:48;79.22;;;28.40;;
44248;SDS011;29923;48.718;9.272;2022-12-18T05:12:13;79.95;;;31.20;;
44248;SDS011;29923;48.718;9.272;2022-12-18T05:14:38;81.22;;;30.95;;
44248;SDS011;29923;48.718;9.272;2022-12-18T05:17:04;85.05;;;31.88;;
44248;SDS011;29923;48.718;9.272;2022-12-18T05:19:29;76.60;;;31.95;;
44248;SDS011;29923;48.718;9.272;2022-12-18T05:21:54;86.65;;;33.13;;
44248;SDS011;29923;48.718;9.272;2022-12-18T05:24:20;79.80;;;32.28;;
44248;SDS011;29923;48.718;9.272;2022-12-18T05:26:45;72.25;;;27.48;;
44248;SDS011;29923;48.718;9.272;2022-12-18T05:29:10;83.35;;;30.67;;
44248;SDS011;29923;48.718;9.272;2022-12-18T05:31:37;80.90;;;30.55;;
44248;SDS011;29923;48.718;9.272;2022-12-18T05:34:03;72.28;;;28.23;;
44248;SDS011;29923;48.718;9.272;2022-12-18T05:36:28;78.13;;;29.33;;
44248;SDS011;29923;48.718;9.272;2022-12-18T05:38:54;70.57;;;27.77;;
44248;SDS011;29923;48.718;9.272;2022-12-18T05:41:19;76.80;;;28.27;;
44248;SDS011;29923;48.718;9.272;2022-12-18T05:43:44;75.68;;;29.40;;
44248;SDS011;29923;48.718;9.272;2022-12-18T05:46:15;73.85;;;27.95;;
44248;SDS011;29923;48.718;9.272;2022-12-18T05:48:42;70.32;;;27.73;;
44248;SDS011;29923;48.718;9.272;2022-12-18T05:51:09;66.22;;;26.98;;
44248;SDS011;29923;48.718;9.272;2022-12-18T05:53:36;64.95;;;26.48;;
44248;SDS011;29923;48.718;9.272;2022-12-18T05:56:03;70.20;;;28.25;;
44248;SDS011;29923;48.718;9.272;2022-12-18T05:58:30;69.72;;;27.13;;
44248;SDS011;29923;48.718;9.272;2022-12-18T06:00:56;67.53;;;27.70;;
44248;SDS011;29923;48.718;9.272;2022-12-18T06:03:22;65.63;;;27.08;;
44248;SDS011;29923;48.718;9.272;2022-12-18T06:05:47;68.50;;;27.45;;
44248;SDS011;29923;48.718;9.272;2022-12-18T06:08:13;71.18;;;27.55;;
44248;SDS011;29923;48.718;9.272;2022-12-18T06:10:38;65.68;;;26.45;;
44248;SDS011;29923;48.718;9.272;2022-12-18T06:13:04;74.40;;;29.75;;
44248;SDS011;29923;48.718;9.272;2022-12-18T06:15:30;75.22;;;26.65;;
44248;SDS011;29923;48.718;9.272;2022-12-18T06:17:56;76.93;;;29.35;;
44248;SDS011;29923;48.718;9.272;2022-12-18T06:20:21;68.47;;;26.80;;
44248;SDS011;29923;48.718;9.272;2022-12-18T06:22:47;68.43;;;28.50;;
44248;SDS011;29923;48.718;9.272;2022-12-18T06:25:12;79.57;;;29.92;;
44248;SDS011;29923;48.718;9.272;2022-12-18T06:27:38;69.25;;;27.33;;
44248;SDS011;29923;48.718;9.272;2022-12-18T06:30:03;73.97;;;28.65;;
44248;SDS011;29923;48.718;9.272;2022-12-18T06:32:29;75.88;;;29.27;;
44248;SDS011;29923;48.718;9.272;2022-12-18T06:34:54;73.75;;;27.58;;
44248;SDS011;29923;48.718;9.272;2022-12-18T06:37:20;71.90;;;28.63;;
44248;SDS011;29923;48.718;9.272;2022-12-18T06:39:46;70.38;;;29.30;;
44248;SDS011;29923;48.718;9.272;2022-12-18T06:42:11;65.30;;;24.98;;
44248;SDS011;29923;48.718;9.272;2022-12-18T06:44:36;71.05;;;26.80;;
44248;SDS011;29923;48.718;9.272;2022-12-18T06:47:02;61.30;;;24.95;;
44248;SDS011;29923;48.718;9.272;2022-12-18T06:49:27;69.68;;;27.42;;
44248;SDS011;29923;48.718;9.272;2022-12-18T06:51:53;65.60;;;26.30;;
44248;SDS011;29923;48.718;9.272;2022-12-18T06:54:18;69.82;;;27.13;;
44248;SDS011;29923;48.718;9.272;2022-12-18T06:56:45;72.22;;;27.38;;
44248;SDS011;29923;48.718;9.272;2022-12-18T06:59:10;68.97;;;26.13;;
44248;SDS011;29923;48.718;9.272;2022-12-18T07:01:36;72.82;;;26.80;;
44248;SDS011;29923;48.718;9.272;2022-12-18T07:04:01;59.35;;;25.80;;
44248;SDS011;29923;48.718;9.272;2022-12-18T07:06:26;58.67;;;19.48;;
44248;SDS011;29923;48.718;9.272;2022-12-18T07:08:53;72.15;;;24.98;;
44248;SDS011;29923;48.718;9.272;2022-12-18T07:11:19;66.05;;;26.77;;
44248;SDS011;29923;48.718;9.272;2022-12-18T07:13:44;65.38;;;27.13;;
44248;SDS011;29923;48.718;9.272;2022-12-18T07:16:11;72.30;;;26.75;;
44248;SDS011;29923;48.718;9.272;2022-12-18T07:18:38;69.70;;;29.05;;
44248;SDS011;29923;48.718;9.272;2022-12-18T07:21:04;62.72;;;27.98;;
44248;SDS011;29923;48.718;9.272;2022-12-18T07:23:31;71.28;;;27.50;;
44248;SDS011;29923;48.718;9.272;2022-12-18T07:26:01;61.53;;;25.83;;
44248;SDS011;29923;48.718;9.272;2022-12-18T07:28:28;77.47;;;26.95;;
44248;SDS011;29923;48.718;9.272;2022-12-18T07:30:53;67.20;;;26.60;;
44248;SDS011;29923;48.718;9.272;2022-12-18T07:33:19;73.57;;;29.40;;
44248;SDS011;29923;48.718;9.272;2022-12-18T07:35:44;72.50;;;29.23;;
44248;SDS011;29923;48.718;9.272;2022-12-18T07:38:09;76.32;;;29.20;;
44248;SDS011;29923;48.718;9.272;2022-12-18T07:40:35;72.70;;;28.73;;
44248;SDS011;29923;48.718;9.272;2022-12-18T07:43:00;70.25;;;28.65;;
44248;SDS011;29923;48.718;9.272;2022-12-18T07:45:25;80.78;;;29.75;;
44248;SDS011;29923;48.718;9.272;2022-12-18T07:47:51;70.85;;;29.48;;
44248;SDS011;29923;48.718;9.272;2022-12-18T07:50:16;70.70;;;29.40;;
44248;SDS011;29923;48.718;9.272;2022-12-18T07:52:41;78.43;;;26.88;;
44248;SDS011;29923;48.718;9.272;2022-12-18T07:55:07;71.18;;;26.85;;
44248;SDS011;29923;48.718;9.272;2022-12-18T07:57:33;71.63;;;29.33;;
44248;SDS011;29923;48.718;9.272;2022-12-18T07:59:59;68.85;;;27.65;;
44248;SDS011;29923;48.718;9.272;2022-12-18T08:02:24;70.15;;;26.52;;
44248;SDS011;29923;48.718;9.272;2022-12-18T08:04:49;65.93;;;28.05;;
44248;SDS011;29923;48.718;9.272;2022-12-18T08:07:15;79.82;;;31.42;;
44248;SDS011;29923;48.718;9.272;2022-12-18T08:09:40;74.78;;;30.80;;
44248;SDS011;29923;48.718;9.272;2022-12-18T08:12:05;74.45;;;30.95;;
44248;SDS011;29923;48.718;9.272;2022-12-18T08:14:31;81.18;;;31.80;;
44248;SDS011;29923;48.718;9.272;2022-12-18T08:16:56;64.47;;;28.75;;
44248;SDS011;29923;48.718;9.272;2022-12-18T08:19:21;77.70;;;32.47;;
44248;SDS011;29923;48.718;9.272;2022-12-18T08:21:47;71.10;;;31.45;;
44248;SDS011;29923;48.718;9.272;2022-12-18T08:24:12;73.22;;;30.48;;
44248;SDS011;29923;48.718;9.272;2022-12-18T08:26:38;80.13;;;32.47;;
44248;SDS011;29923;48.718;9.272;2022-12-18T08:29:03;78.20;;;31.23;;
44248;SDS011;29923;48.718;9.272;2022-12-18T08:31:29;78.60;;;30.42;;
44248;SDS011;29923;48.718;9.272;2022-12-18T08:33:55;66.85;;;28.65;;
44248;SDS011;29923;48.718;9.272;2022-12-18T08:36:21;74.07;;;31.90;;
44248;SDS011;29923;48.718;9.272;2022-12-18T08:38:47;91.38;;;31.88;;
44248;SDS011;29923;48.718;9.272;2022-12-18T08:41:13;76.70;;;29.75;;
44248;SDS011;29923;48.718;9.272;2022-12-18T08:43:40;86.60;;;32.50;;
44248;SDS011;29923;48.718;9.272;2022-12-18T08:46:24;82.88;;;33.35;;
44248;SDS011;29923;48.718;9.272;2022-12-18T08:48:51;80.88;;;32.22;;
44248;SDS011;29923;48.718;9.272;2022-12-18T08:51:17;76.22;;;30.92;;
44248;SDS011;29923;48.718;9.272;2022-12-18T08:53:43;73.70;;;31.42;;
44248;SDS011;29923;48.718;9.272;2022-12-18T08:56:09;81.50;;;31.10;;
44248;SDS011;29923;48.718;9.272;2022-12-18T08:58:35;73.97;;;30.90;;
44248;SDS011;29923;48.718;9.272;2022-12-18T09:01:01;81.72;;;32.30;;
44248;SDS011;29923;48.718;9.272;2022-12-18T09:03:27;92.63;;;36.78;;
44248;SDS011;29923;48.718;9.272;2022-12-18T09:05:52;100.80;;;40.10;;
44248;SDS011;29923;48.718;9.272;2022-12-18T09:08:18;86.28;;;35.63;;
44248;SDS011;29923;48.718;9.272;2022-12-18T09:10:47;99.35;;;37.17;;
44248;SDS011;29923;48.718;9.272;2022-12-18T09:13:14;86.57;;;34.00;;
44248;SDS011;29923;48.718;9.272;2022-12-18T09:15:44;83.10;;;31.25;;
44248;SDS011;29923;48.718;9.272;2022-12-18T09:18:12;79.80;;;30.83;;
44248;SDS011;29923;48.718;9.272;2022-12-18T09:20:38;81.25;;;32.20;;
44248;SDS011;29923;48.718;9.272;2022-12-18T09:23:04;79.25;;;32.80;;
44248;SDS011;29923;48.718;9.272;2022-12-18T09:25:30;85.03;;;33.88;;
44248;SDS011;29923;48.718;9.272;2022-12-18T09:28:01;79.97;;;33.15;;
44248;SDS011;29923;48.718;9.272;2022-12-18T09:30:30;90.88;;;33.28;;
44248;SDS011;29923;48.718;9.272;2022-12-18T09:32:58;88.90;;;36.78;;
44248;SDS011;29923;48.718;9.272;2022-12-18T09:35:24;96.80;;;36.42;;
44248;SDS011;29923;48.718;9.272;2022-12-18T09:37:49;87.60;;;34.58;;
44248;SDS011;29923;48.718;9.272;2022-12-18T09:40:16;104.32;;;40.58;;
44248;SDS011;29923;48.718;9.272;2022-12-18T09:42:44;85.72;;;33.72;;
44248;SDS011;29923;48.718;9.272;2022-12-18T09:45:12;81.32;;;30.77;;
44248;SDS011;29923;48.718;9.272;2022-12-18T09:47:39;81.32;;;33.67;;
44248;SDS011;29923;48.718;9.272;2022-12-18T09:50:14;84.88;;;35.97;;
44248;SDS011;29923;48.718;9.272;2022-12-18T09:52:41;91.38;;;36.05;;
44248;SDS011;29923;48.718;9.272;2022-12-18T09:55:13;86.53;;;35.08;;
44248;SDS011;29923;48.718;9.272;2022-12-18T09:57:49;94.60;;;37.08;;
44248;SDS011;29923;48.718;9.272;2022-12-18T10:00:23;75.00;;;33.15;;
44248;SDS011;29923;48.718;9.272;2022-12-18T10:02:53;83.75;;;35.03;;
44248;SDS011;29923;48.718;9.272;2022-12-18T10:05:28;83.93;;;33.92;;
44248;SDS011;29923;48.718;9.272;2022-12-18T10:08:33;75.53;;;31.75;;
44248;SDS011;29923;48.718;9.272;2022-12-18T10:13:47;84.80;;;34.72;;
44248;SDS011;29923;48.718;9.272;2022-12-18T10:16:26;71.85;;;31.70;;
44248;SDS011;29923;48.718;9.272;2022-12-18T10:21:47;77.30;;;34.80;;
44248;SDS011;29923;48.718;9.272;2022-12-18T10:27:18;77.95;;;29.40;;
44248;SDS011;29923;48.718;9.272;2022-12-18T10:29:47;74.10;;;32.60;;
44248;SDS011;29923;48.718;9.272;2022-12-18T10:32:34;73.57;;;30.75;;
44248;SDS011;29923;48.718;9.272;2022-12-18T10:34:58;73.85;;;31.33;;
44248;SDS011;29923;48.718;9.272;2022-12-18T10:37:25;77.47;;;33.30;;
44248;SDS011;29923;48.718;9.272;2022-12-18T10:40:06;72.70;;;33.50;;
44248;SDS011;29923;48.718;9.272;2022-12-18T10:42:41;73.65;;;32.47;;
44248;SDS011;29923;48.718;9.272;2022-12-18T10:45:14;72.95;;;29.42;;
44248;SDS011;29923;48.718;9.272;2022-12-18T10:47:43;76.00;;;32.10;;
44248;SDS011;29923;48.718;9.272;2022-12-18T10:50:18;84.30;;;32.63;;
44248;SDS011;29923;48.718;9.272;2022-12-18T10:52:52;69.72;;;31.15;;
44248;SDS011;29923;48.718;9.272;2022-12-18T10:55:19;71.72;;;31.92;;
44248;SDS011;29923;48.718;9.272;2022-12-18T10:57:44;76.15;;;33.00;;
44248;SDS011;29923;48.718;9.272;2022-12-18T11:00:21;73.70;;;30.58;;
44248;SDS011;29923;48.718;9.272;2022-12-18T11:02:49;71.45;;;30.77;;
44248;SDS011;29923;48.718;9.272;2022-12-18T11:05:28;72.50;;;30.20;;
44248;SDS011;29923;48.718;9.272;2022-12-18T11:07:54;74.40;;;32.58;;
44248;SDS011;29923;48.718;9.272;2022-12-18T11:10:21;75.88;;;30.40;;
44248;SDS011;29923;48.718;9.272;2022-12-18T11:12:48;84.13;;;31.70;;
44248;SDS011;29923;48.718;9.272;2022-12-18T11:15:19;71.50;;;31.50;;
44248;SDS011;29923;48.718;9.272;2022-12-18T11:17:47;63.10;;;28.83;;
44248;SDS011;29923;48.718;9.272;2022-12-18T11:20:32;66.47;;;30.23;;
44248;SDS011;29923;48.718;9.272;2022-12-18T11:23:00;67.78;;;28.38;;
44248;SDS011;29923;48.718;9.272;2022-12-18T11:25:30;72.10;;;31.58;;
44248;SDS011;29923;48.718;9.272;2022-12-18T11:27:58;69.88;;;31.60;;
44248;SDS011;29923;48.718;9.272;2022-12-18T11:30:35;69.13;;;30.95;;
44248;SDS011;29923;48.718;9.272;2022-12-18T11:33:21;73.60;;;32.47;;
44248;SDS011;29923;48.718;9.272;2022-12-18T11:38:23;81.35;;;32.78;;
44248;SDS011;29923;48.718;9.272;2022-12-18T11:43:38;73.75;;;33.53;;
44248;SDS011;29923;48.718;9.272;2022-12-18T11:46:07;72.07;;;31.35;;
44248;SDS011;29923;48.718;9.272;2022-12-18T11:48:41;72.80;;;32.08;;
44248;SDS011;29923;48.718;9.272;2022-12-18T11:51:11;71.43;;;31.23;;
44248;SDS011;29923;48.718;9.272;2022-12-18T11:53:44;72.43;;;31.70;;
44248;SDS011;29923;48.718;9.272;2022-12-18T12:04:56;82.28;;;31.40;;
44248;SDS011;29923;48.718;9.272;2022-12-18T12:07:33;78.85;;;31.58;;
44248;SDS011;29923;48.718;9.272;2022-12-18T12:10:12;80.20;;;34.60;;
44248;SDS011;29923;48.718;9.272;2022-12-18T12:13:07;84.38;;;36.20;;
44248;SDS011;29923;48.718;9.272;2022-12-18T12:18:23;76.05;;;33.08;;
44248;SDS011;29923;48.718;9.272;2022-12-18T12:26:14;68.15;;;31.48;;
44248;SDS011;29923;48.718;9.272;2022-12-18T12:39:42;134.30;;;67.13;;
44248;SDS011;29923;48.718;9.272;2022-12-18T12:42:27;84.28;;;33.22;;
44248;SDS011;29923;48.718;9.272;2022-12-18T12:45:16;77.65;;;32.72;;
44248;SDS011;29923;48.718;9.272;2022-12-18T12:47:46;58.75;;;24.17;;
44248;SDS011;29923;48.718;9.272;2022-12-18T12:50:16;78.95;;;33.72;;
44248;SDS011;29923;48.718;9.272;2022-12-18T12:52:47;75.88;;;32.50;;
44248;SDS011;29923;48.718;9.272;2022-12-18T12:55:26;72.22;;;32.75;;
44248;SDS011;29923;48.718;9.272;2022-12-18T13:00:18;75.05;;;31.33;;
44248;SDS011;29923;48.718;9.272;2022-12-18T13:02:52;72.55;;;32.20;;
44248;SDS011;29923;48.718;9.272;2022-12-18T13:05:54;68.50;;;31.10;;
44248;SDS011;29923;48.718;9.272;2022-12-18T13:08:29;75.00;;;31.27;;
44248;SDS011;29923;48.718;9.272;2022-12-18T13:10:56;74.32;;;33.08;;
44248;SDS011;29923;48.718;9.272;2022-12-18T13:13:47;75.65;;;31.83;;
44248;SDS011;29923;48.718;9.272;2022-12-18T13:16:24;72.63;;;30.98;;
44248;SDS011;29923;48.718;9.272;2022-12-18T13:18:53;76.43;;;33.97;;
44248;SDS011;29923;48.718;9.272;2022-12-18T13:21:26;77.35;;;33.83;;
44248;SDS011;29923;48.718;9.272;2022-12-18T13:23:53;74.70;;;33.28;;
44248;SDS011;29923;48.718;9.272;2022-12-18T13:34:27;76.78;;;34.80;;
44248;SDS011;29923;48.718;9.272;2022-12-18T13:36:54;80.00;;;34.58;;
44248;SDS011;29923;48.718;9.272;2022-12-18T13:39:23;84.00;;;36.30;;
44248;SDS011;29923;48.718;9.272;2022-12-18T13:41:51;80.38;;;34.78;;
44248;SDS011;29923;48.718;9.272;2022-12-18T13:44:25;78.55;;;33.97;;
44248;SDS011;29923;48.718;9.272;2022-12-18T13:46:56;78.13;;;34.92;;
44248;SDS011;29923;48.718;9.272;2022-12-18T13:49:43;83.80;;;33.13;;
44248;SDS011;29923;48.718;9.272;2022-12-18T13:52:16;80.93;;;34.78;;
44248;SDS011;29923;48.718;9.272;2022-12-18T13:54:59;74.60;;;33.40;;
44248;SDS011;29923;48.718;9.272;2022-12-18T13:59:56;79.97;;;34.25;;
44248;SDS011;29923;48.718;9.272;2022-12-18T14:02:23;88.18;;;36.33;;
44248;SDS011;29923;48.718;9.272;2022-12-18T14:04:50;86.63;;;36.83;;
44248;SDS011;29923;48.718;9.272;2022-12-18T14:07:17;83.43;;;33.13;;
44248;SDS011;29923;48.718;9.272;2022-12-18T14:09:59;81.00;;;34.75;;
44248;SDS011;29923;48.718;9.272;2022-12-18T14:12:27;76.05;;;34.90;;
44248;SDS011;29923;48.718;9.272;2022-12-18T14:20:46;79.65;;;34.78;;
44248;SDS011;29923;48.718;9.272;2022-12-18T14:28:46;79.15;;;34.45;;
44248;SDS011;29923;48.718;9.272;2022-12-18T14:31:24;84.30;;;33.65;;
44248;SDS011;29923;48.718;9.272;2022-12-18T14:33:51;85.35;;;33.72;;
44248;SDS011;29923;48.718;9.272;2022-12-18T14:36:18;77.78;;;36.17;;
44248;SDS011;29923;48.718;9.272;2022-12-18T14:38:51;89.13;;;38.05;;
44248;SDS011;29923;48.718;9.272;2022-12-18T14:41:19;77.93;;;34.67;;
44248;SDS011;29923;48.718;9.272;2022-12-18T14:43:46;89.65;;;36.92;;
44248;SDS011;29923;48.718;9.272;2022-12-18T14:48:58;78.28;;;35.10;;
44248;SDS011;29923;48.718;9.272;2022-12-18T14:51:28;84.88;;;34.58;;
44248;SDS011;29923;48.718;9.272;2022-12-18T14:53:55;74.85;;;34.47;;
44248;SDS011;29923;48.718;9.272;2022-12-18T14:56:32;90.20;;;35.67;;
44248;SDS011;29923;48.718;9.272;2022-12-18T14:59:00;76.70;;;34.80;;
44248;SDS011;29923;48.718;9.272;2022-12-18T15:01:33;76.80;;;32.80;;
44248;SDS011;29923;48.718;9.272;2022-12-18T15:04:00;86.72;;;35.53;;
44248;SDS011;29923;48.718;9.272;2022-12-18T15:09:00;86.65;;;37.65;;
44248;SDS011;29923;48.718;9.272;2022-12-18T15:14:39;81.93;;;35.42;;
44248;SDS011;29923;48.718;9.272;2022-12-18T15:17:05;101.93;;;38.35;;
44248;SDS011;29923;48.718;9.272;2022-12-18T15:19:33;88.93;;;37.60;;
44248;SDS011;29923;48.718;9.272;2022-12-18T15:22:01;79.05;;;36.65;;
44248;SDS011;29923;48.718;9.272;2022-12-18T15:24:27;89.57;;;38.80;;
44248;SDS011;29923;48.718;9.272;2022-12-18T15:26:56;84.90;;;38.17;;
44248;SDS011;29923;48.718;9.272;2022-12-18T15:29:24;91.80;;;38.20;;
44248;SDS011;29923;48.718;9.272;2022-12-18T15:31:58;93.03;;;37.97;;
44248;SDS011;29923;48.718;9.272;2022-12-18T15:34:27;85.35;;;38.08;;
44248;SDS011;29923;48.718;9.272;2022-12-18T15:36:53;93.68;;;38.55;;
44248;SDS011;29923;48.718;9.272;2022-12-18T15:39:18;85.20;;;37.85;;
44248;SDS011;29923;48.718;9.272;2022-12-18T15:41:43;87.53;;;37.22;;
44248;SDS011;29923;48.718;9.272;2022-12-18T15:44:29;78.10;;;35.53;;
44248;SDS011;29923;48.718;9.272;2022-12-18T15:46:57;84.93;;;37.95;;
44248;SDS011;29923;48.718;9.272;2022-12-18T15:49:23;87.18;;;38.13;;
44248;SDS011;29923;48.718;9.272;2022-12-18T15:51:50;91.20;;;38.67;;
44248;SDS011;29923;48.718;9.272;2022-12-18T15:54:18;97.10;;;38.67;;
44248;SDS011;29923;48.718;9.272;2022-12-18T15:57:03;83.07;;;37.35;;
44248;SDS011;29923;48.718;9.272;2022-12-18T15:59:47;85.57;;;38.15;;
44248;SDS011;29923;48.718;9.272;2022-12-18T16:02:13;87.43;;;36.88;;